Search for airport 
image banner adimage banner adimage banner ad
image banner ad

KCEC - Jack Mc Namara Field

Located in Crescent City, United States

ICAO - CEC, IATA - CEC

Data provided by Airmate  

General information

Coordinates: N41°46'49" W124°14'12"
Elevation is 61 feet MSL.
Magnetic variation is 14° East
View others Airports in California

Operational data

Special qualification required
Current time UTC:
Current local time:
Weather
METAR: KCEC 221403Z AUTO 34003KT 3/4SM BR OVC002 11/10 A2994 RMK AO2 T01060100
TAF: KCEC 221149Z 2212/2312 VRB03KT 3SM BR BKN004 OVC010 TEMPO 2212/2215 1SM BR OVC003 FM221800 25007KT 5SM BR OVC007 FM230200 33003KT 4SM HZ BR OVC004
View NOTAMs / SUP AIP / TFR affecting this airport [VIEW]
Communications frequencies: [VIEW]

Runways:

RWY identifierQFULength (ft)Width (ft)SurfaceLDA (ft)
12133°5002150ASPH
18193°5000150ASPH
30313°5002150ASPH
3613°5000150ASPH

Airport contact information

Address: Crescent City United States

Satellite view of KCEC